sensor_id;sensor_type;location;lat;lon;timestamp;temperature;humidity
47022;DHT22;32779;52.264;6.154;2022-12-10T00:01:20;-1.90;99.90
47022;DHT22;32779;52.264;6.154;2022-12-10T00:03:46;-1.90;99.90
47022;DHT22;32779;52.264;6.154;2022-12-10T00:06:30;-2.00;99.90
47022;DHT22;32779;52.264;6.154;2022-12-10T00:08:56;-2.00;99.90
47022;DHT22;32779;52.264;6.154;2022-12-10T00:11:23;-2.10;99.90
47022;DHT22;32779;52.264;6.154;2022-12-10T00:13:50;-2.10;99.90
47022;DHT22;32779;52.264;6.154;2022-12-10T00:16:18;-2.10;99.90
47022;DHT22;32779;52.264;6.154;2022-12-10T00:18:44;-2.10;99.90
47022;DHT22;32779;52.264;6.154;2022-12-10T00:21:23;-2.10;99.90
47022;DHT22;32779;52.264;6.154;2022-12-10T00:23:49;-2.10;99.90
47022;DHT22;32779;52.264;6.154;2022-12-10T00:26:27;-2.20;99.90
47022;DHT22;32779;52.264;6.154;2022-12-10T00:28:53;-2.20;99.90
47022;DHT22;32779;52.264;6.154;2022-12-10T00:31:23;-2.20;99.90
47022;DHT22;32779;52.264;6.154;2022-12-10T00:33:49;-2.20;99.90
47022;DHT22;32779;52.264;6.154;2022-12-10T00:36:21;-2.20;99.90
47022;DHT22;32779;52.264;6.154;2022-12-10T00:38:48;-2.10;99.90
47022;DHT22;32779;52.264;6.154;2022-12-10T00:41:14;-2.20;99.90
47022;DHT22;32779;52.264;6.154;2022-12-10T00:43:40;-2.20;99.90
47022;DHT22;32779;52.264;6.154;2022-12-10T00:46:06;-2.20;99.90
47022;DHT22;32779;52.264;6.154;2022-12-10T00:48:33;-2.20;99.90
47022;DHT22;32779;52.264;6.154;2022-12-10T00:51:01;-2.20;99.90
47022;DHT22;32779;52.264;6.154;2022-12-10T00:53:28;-2.20;99.90
47022;DHT22;32779;52.264;6.154;2022-12-10T00:55:55;-2.20;99.90
47022;DHT22;32779;52.264;6.154;2022-12-10T00:58:21;-2.20;99.90
47022;DHT22;32779;52.264;6.154;2022-12-10T01:00:47;-2.30;99.90
47022;DHT22;32779;52.264;6.154;2022-12-10T01:03:13;-2.30;99.90
47022;DHT22;32779;52.264;6.154;2022-12-10T01:05:39;-2.20;99.90
47022;DHT22;32779;52.264;6.154;2022-12-10T01:08:04;-2.30;99.90
47022;DHT22;32779;52.264;6.154;2022-12-10T01:10:30;-2.20;99.90
47022;DHT22;32779;52.264;6.154;2022-12-10T01:12:56;-2.30;99.90
47022;DHT22;32779;52.264;6.154;2022-12-10T01:15:22;-2.30;99.90
47022;DHT22;32779;52.264;6.154;2022-12-10T01:17:47;-2.30;99.90
47022;DHT22;32779;52.264;6.154;2022-12-10T01:20:13;-2.30;99.90
47022;DHT22;32779;52.264;6.154;2022-12-10T01:22:39;-2.30;99.90
47022;DHT22;32779;52.264;6.154;2022-12-10T01:25:04;-2.30;99.90
47022;DHT22;32779;52.264;6.154;2022-12-10T01:27:30;-2.40;99.90
47022;DHT22;32779;52.264;6.154;2022-12-10T01:29:56;-2.40;99.90
47022;DHT22;32779;52.264;6.154;2022-12-10T01:32:21;-2.50;99.90
47022;DHT22;32779;52.264;6.154;2022-12-10T01:34:47;-2.50;99.90
47022;DHT22;32779;52.264;6.154;2022-12-10T01:37:13;-2.40;99.90
47022;DHT22;32779;52.264;6.154;2022-12-10T01:39:38;-2.40;99.90
47022;DHT22;32779;52.264;6.154;2022-12-10T01:42:04;-2.40;99.90
47022;DHT22;32779;52.264;6.154;2022-12-10T01:46:58;-2.40;99.90
47022;DHT22;32779;52.264;6.154;2022-12-10T01:51:54;-2.50;99.90
47022;DHT22;32779;52.264;6.154;2022-12-10T01:54:26;-2.50;99.90
47022;DHT22;32779;52.264;6.154;2022-12-10T01:57:04;-2.50;99.90
47022;DHT22;32779;52.264;6.154;2022-12-10T01:59:32;-2.50;99.90
47022;DHT22;32779;52.264;6.154;2022-12-10T02:02:38;-2.50;99.90
47022;DHT22;32779;52.264;6.154;2022-12-10T02:15:35;-2.60;99.90
47022;DHT22;32779;52.264;6.154;2022-12-10T02:18:07;-2.60;99.90
47022;DHT22;32779;52.264;6.154;2022-12-10T02:20:35;-2.60;99.90
47022;DHT22;32779;52.264;6.154;2022-12-10T02:23:06;-2.70;99.90
47022;DHT22;32779;52.264;6.154;2022-12-10T02:30:43;-2.70;99.90
47022;DHT22;32779;52.264;6.154;2022-12-10T02:33:10;-2.70;99.90
47022;DHT22;32779;52.264;6.154;2022-12-10T02:35:37;-2.70;99.90
47022;DHT22;32779;52.264;6.154;2022-12-10T02:38:11;-2.70;99.90
47022;DHT22;32779;52.264;6.154;2022-12-10T02:40:45;-2.70;99.90
47022;DHT22;32779;52.264;6.154;2022-12-10T02:43:13;-2.70;99.90
47022;DHT22;32779;52.264;6.154;2022-12-10T02:45:39;-2.70;99.90
47022;DHT22;32779;52.264;6.154;2022-12-10T02:48:06;-2.60;99.90
47022;DHT22;32779;52.264;6.154;2022-12-10T02:50:33;-2.60;99.90
47022;DHT22;32779;52.264;6.154;2022-12-10T02:52:59;-2.60;99.90
47022;DHT22;32779;52.264;6.154;2022-12-10T02:55:25;-2.60;99.90
47022;DHT22;32779;52.264;6.154;2022-12-10T03:00:25;-2.50;99.90
47022;DHT22;32779;52.264;6.154;2022-12-10T03:08:28;-2.50;99.90
47022;DHT22;32779;52.264;6.154;2022-12-10T03:16:23;-2.40;99.90
47022;DHT22;32779;52.264;6.154;2022-12-10T03:18:53;-2.50;99.90
47022;DHT22;32779;52.264;6.154;2022-12-10T03:21:21;-2.50;99.90
47022;DHT22;32779;52.264;6.154;2022-12-10T03:23:48;-2.50;99.90
47022;DHT22;32779;52.264;6.154;2022-12-10T03:26:15;-2.50;99.90
47022;DHT22;32779;52.264;6.154;2022-12-10T03:28:46;-2.50;99.90
47022;DHT22;32779;52.264;6.154;2022-12-10T03:31:14;-2.50;99.90
47022;DHT22;32779;52.264;6.154;2022-12-10T03:33:40;-2.60;99.90
47022;DHT22;32779;52.264;6.154;2022-12-10T03:36:07;-2.60;99.90
47022;DHT22;32779;52.264;6.154;2022-12-10T03:38:34;-2.60;99.90
47022;DHT22;32779;52.264;6.154;2022-12-10T03:41:00;-2.50;99.90
47022;DHT22;32779;52.264;6.154;2022-12-10T03:43:26;-2.60;99.90
47022;DHT22;32779;52.264;6.154;2022-12-10T03:45:51;-2.60;99.90
47022;DHT22;32779;52.264;6.154;2022-12-10T03:48:17;-2.70;99.90
47022;DHT22;32779;52.264;6.154;2022-12-10T03:50:43;-2.70;99.90
47022;DHT22;32779;52.264;6.154;2022-12-10T03:53:08;-2.70;99.90
47022;DHT22;32779;52.264;6.154;2022-12-10T03:55:34;-2.70;99.90
47022;DHT22;32779;52.264;6.154;2022-12-10T03:57:59;-2.70;99.90
47022;DHT22;32779;52.264;6.154;2022-12-10T04:00:25;-2.70;99.90
47022;DHT22;32779;52.264;6.154;2022-12-10T04:02:50;-2.70;99.90
47022;DHT22;32779;52.264;6.154;2022-12-10T04:05:16;-2.70;99.90
47022;DHT22;32779;52.264;6.154;2022-12-10T04:07:42;-2.70;99.90
47022;DHT22;32779;52.264;6.154;2022-12-10T04:10:08;-2.60;99.90
47022;DHT22;32779;52.264;6.154;2022-12-10T04:12:34;-2.60;99.90
47022;DHT22;32779;52.264;6.154;2022-12-10T04:14:59;-2.70;99.90
47022;DHT22;32779;52.264;6.154;2022-12-10T04:17:43;-2.70;99.90
47022;DHT22;32779;52.264;6.154;2022-12-10T04:20:09;-2.80;99.90
47022;DHT22;32779;52.264;6.154;2022-12-10T04:22:55;-2.80;99.90
47022;DHT22;32779;52.264;6.154;2022-12-10T04:25:39;-2.80;99.90
47022;DHT22;32779;52.264;6.154;2022-12-10T04:28:23;-2.80;99.90
47022;DHT22;32779;52.264;6.154;2022-12-10T04:30:48;-2.80;99.90
47022;DHT22;32779;52.264;6.154;2022-12-10T04:33:14;-2.70;99.90
47022;DHT22;32779;52.264;6.154;2022-12-10T04:35:39;-2.70;99.90
47022;DHT22;32779;52.264;6.154;2022-12-10T04:38:05;-2.80;99.90
47022;DHT22;32779;52.264;6.154;2022-12-10T04:40:30;-2.70;99.90
47022;DHT22;32779;52.264;6.154;2022-12-10T04:42:56;-2.80;99.90
47022;DHT22;32779;52.264;6.154;2022-12-10T04:45:21;-2.80;99.90
47022;DHT22;32779;52.264;6.154;2022-12-10T04:47:47;-2.70;99.90
47022;DHT22;32779;52.264;6.154;2022-12-10T04:50:12;-2.80;99.90
47022;DHT22;32779;52.264;6.154;2022-12-10T04:52:38;-2.80;99.90
47022;DHT22;32779;52.264;6.154;2022-12-10T04:55:04;-2.80;99.90
47022;DHT22;32779;52.264;6.154;2022-12-10T04:57:30;-2.80;99.90
47022;DHT22;32779;52.264;6.154;2022-12-10T04:59:55;-2.80;99.90
47022;DHT22;32779;52.264;6.154;2022-12-10T05:02:21;-2.80;99.90
47022;DHT22;32779;52.264;6.154;2022-12-10T05:04:48;-2.70;99.90
47022;DHT22;32779;52.264;6.154;2022-12-10T05:07:14;-2.80;99.90
47022;DHT22;32779;52.264;6.154;2022-12-10T05:09:40;-2.80;99.90
47022;DHT22;32779;52.264;6.154;2022-12-10T05:12:06;-2.80;99.90
47022;DHT22;32779;52.264;6.154;2022-12-10T05:14:32;-2.80;99.90
47022;DHT22;32779;52.264;6.154;2022-12-10T05:16:58;-2.80;99.90
47022;DHT22;32779;52.264;6.154;2022-12-10T05:19:23;-2.80;99.90
47022;DHT22;32779;52.264;6.154;2022-12-10T05:21:54;-2.80;99.90
47022;DHT22;32779;52.264;6.154;2022-12-10T05:24:38;-2.80;99.90
47022;DHT22;32779;52.264;6.154;2022-12-10T05:27:05;-2.80;99.90
47022;DHT22;32779;52.264;6.154;2022-12-10T05:29:31;-2.80;99.90
47022;DHT22;32779;52.264;6.154;2022-12-10T05:31:57;-2.90;99.90
47022;DHT22;32779;52.264;6.154;2022-12-10T05:34:23;-2.90;99.90
47022;DHT22;32779;52.264;6.154;2022-12-10T05:36:49;-2.90;99.90
47022;DHT22;32779;52.264;6.154;2022-12-10T05:39:14;-2.90;99.90
47022;DHT22;32779;52.264;6.154;2022-12-10T05:41:40;-2.90;99.90
47022;DHT22;32779;52.264;6.154;2022-12-10T05:44:06;-2.90;99.90
47022;DHT22;32779;52.264;6.154;2022-12-10T05:46:33;-2.90;99.90
47022;DHT22;32779;52.264;6.154;2022-12-10T05:49:04;-2.90;99.90
47022;DHT22;32779;52.264;6.154;2022-12-10T05:51:32;-2.90;99.90
47022;DHT22;32779;52.264;6.154;2022-12-10T05:53:59;-2.90;99.90
47022;DHT22;32779;52.264;6.154;2022-12-10T05:56:27;-2.90;99.90
47022;DHT22;32779;52.264;6.154;2022-12-10T05:58:57;-2.90;99.90
47022;DHT22;32779;52.264;6.154;2022-12-10T06:01:25;-2.90;99.90
47022;DHT22;32779;52.264;6.154;2022-12-10T06:03:52;-2.90;99.90
47022;DHT22;32779;52.264;6.154;2022-12-10T06:06:22;-2.90;99.90
47022;DHT22;32779;52.264;6.154;2022-12-10T06:08:48;-2.90;99.90
47022;DHT22;32779;52.264;6.154;2022-12-10T06:11:14;-2.90;99.90
47022;DHT22;32779;52.264;6.154;2022-12-10T06:13:40;-2.90;99.90
47022;DHT22;32779;52.264;6.154;2022-12-10T06:16:06;-3.00;99.90
47022;DHT22;32779;52.264;6.154;2022-12-10T06:18:32;-3.00;99.90
47022;DHT22;32779;52.264;6.154;2022-12-10T06:20:58;-3.00;99.90
47022;DHT22;32779;52.264;6.154;2022-12-10T06:23:24;-3.00;99.90
47022;DHT22;32779;52.264;6.154;2022-12-10T06:25:49;-3.00;99.90
47022;DHT22;32779;52.264;6.154;2022-12-10T06:28:15;-3.00;99.90
47022;DHT22;32779;52.264;6.154;2022-12-10T06:30:40;-3.00;99.90
47022;DHT22;32779;52.264;6.154;2022-12-10T06:33:06;-3.00;99.90
47022;DHT22;32779;52.264;6.154;2022-12-10T06:35:32;-3.00;99.90
47022;DHT22;32779;52.264;6.154;2022-12-10T06:37:57;-3.00;99.90
47022;DHT22;32779;52.264;6.154;2022-12-10T06:40:23;-3.00;99.90
47022;DHT22;32779;52.264;6.154;2022-12-10T06:42:51;-2.90;99.90
47022;DHT22;32779;52.264;6.154;2022-12-10T06:45:18;-2.90;99.90
47022;DHT22;32779;52.264;6.154;2022-12-10T06:47:43;-2.90;99.90
47022;DHT22;32779;52.264;6.154;2022-12-10T06:50:09;-2.90;99.90
47022;DHT22;32779;52.264;6.154;2022-12-10T06:52:35;-2.90;99.90
47022;DHT22;32779;52.264;6.154;2022-12-10T06:55:00;-2.90;99.90
47022;DHT22;32779;52.264;6.154;2022-12-10T06:57:26;-2.90;99.90
47022;DHT22;32779;52.264;6.154;2022-12-10T06:59:52;-2.80;99.90
47022;DHT22;32779;52.264;6.154;2022-12-10T07:02:17;-2.80;99.90
47022;DHT22;32779;52.264;6.154;2022-12-10T07:04:43;-2.80;99.90
47022;DHT22;32779;52.264;6.154;2022-12-10T07:07:09;-2.70;99.90
47022;DHT22;32779;52.264;6.154;2022-12-10T07:09:34;-2.70;99.90
47022;DHT22;32779;52.264;6.154;2022-12-10T07:12:00;-2.60;99.90
47022;DHT22;32779;52.264;6.154;2022-12-10T07:14:26;-2.60;99.90
47022;DHT22;32779;52.264;6.154;2022-12-10T07:16:51;-2.60;99.90
47022;DHT22;32779;52.264;6.154;2022-12-10T07:19:17;-2.60;99.90
47022;DHT22;32779;52.264;6.154;2022-12-10T07:21:43;-2.60;99.90
47022;DHT22;32779;52.264;6.154;2022-12-10T07:24:15;-2.60;99.90
47022;DHT22;32779;52.264;6.154;2022-12-10T07:26:42;-2.60;99.90
47022;DHT22;32779;52.264;6.154;2022-12-10T07:29:13;-2.60;99.90
47022;DHT22;32779;52.264;6.154;2022-12-10T07:31:39;-2.50;99.90
47022;DHT22;32779;52.264;6.154;2022-12-10T07:34:05;-2.50;99.90
47022;DHT22;32779;52.264;6.154;2022-12-10T07:36:30;-2.40;99.90
47022;DHT22;32779;52.264;6.154;2022-12-10T07:38:56;-2.50;99.90
47022;DHT22;32779;52.264;6.154;2022-12-10T07:41:23;-2.50;99.90
47022;DHT22;32779;52.264;6.154;2022-12-10T07:43:49;-2.50;99.90
47022;DHT22;32779;52.264;6.154;2022-12-10T07:49:09;-2.50;99.90
47022;DHT22;32779;52.264;6.154;2022-12-10T07:51:35;-2.50;99.90
47022;DHT22;32779;52.264;6.154;2022-12-10T07:54:01;-2.50;99.90
47022;DHT22;32779;52.264;6.154;2022-12-10T07:56:27;-2.60;99.90
47022;DHT22;32779;52.264;6.154;2022-12-10T07:58:53;-2.50;99.90
47022;DHT22;32779;52.264;6.154;2022-12-10T08:01:23;-2.50;99.90
47022;DHT22;32779;52.264;6.154;2022-12-10T08:03:49;-2.50;99.90
47022;DHT22;32779;52.264;6.154;2022-12-10T08:06:17;-2.50;99.90
47022;DHT22;32779;52.264;6.154;2022-12-10T08:08:44;-2.50;99.90
47022;DHT22;32779;52.264;6.154;2022-12-10T08:11:11;-2.40;99.90
47022;DHT22;32779;52.264;6.154;2022-12-10T08:13:37;-2.40;99.90
47022;DHT22;32779;52.264;6.154;2022-12-10T08:16:05;-2.30;99.90
47022;DHT22;32779;52.264;6.154;2022-12-10T08:18:31;-2.30;99.90
47022;DHT22;32779;52.264;6.154;2022-12-10T08:20:57;-2.30;99.90
47022;DHT22;32779;52.264;6.154;2022-12-10T08:23:23;-2.30;99.90
47022;DHT22;32779;52.264;6.154;2022-12-10T08:25:49;-2.30;99.90
47022;DHT22;32779;52.264;6.154;2022-12-10T08:28:15;-2.30;99.90
47022;DHT22;32779;52.264;6.154;2022-12-10T08:30:48;-2.20;99.90
47022;DHT22;32779;52.264;6.154;2022-12-10T08:33:15;-2.10;99.90
47022;DHT22;32779;52.264;6.154;2022-12-10T08:35:40;-2.10;99.90
47022;DHT22;32779;52.264;6.154;2022-12-10T08:38:06;-2.10;99.90
47022;DHT22;32779;52.264;6.154;2022-12-10T08:40:32;-2.10;99.90
47022;DHT22;32779;52.264;6.154;2022-12-10T08:42:57;-2.10;99.90
47022;DHT22;32779;52.264;6.154;2022-12-10T08:45:23;-2.10;99.90
47022;DHT22;32779;52.264;6.154;2022-12-10T08:47:48;-2.00;99.90
47022;DHT22;32779;52.264;6.154;2022-12-10T08:50:14;-2.00;99.90
47022;DHT22;32779;52.264;6.154;2022-12-10T08:52:40;-1.90;99.90
47022;DHT22;32779;52.264;6.154;2022-12-10T08:55:06;-1.90;99.90
47022;DHT22;32779;52.264;6.154;2022-12-10T08:57:32;-1.90;99.90
47022;DHT22;32779;52.264;6.154;2022-12-10T08:59:57;-1.90;99.90
47022;DHT22;32779;52.264;6.154;2022-12-10T09:02:23;-1.90;99.90
47022;DHT22;32779;52.264;6.154;2022-12-10T09:04:50;-1.80;99.90
47022;DHT22;32779;52.264;6.154;2022-12-10T09:07:15;-1.80;99.90
47022;DHT22;32779;52.264;6.154;2022-12-10T09:09:41;-1.80;99.90
47022;DHT22;32779;52.264;6.154;2022-12-10T09:12:07;-1.80;99.90
47022;DHT22;32779;52.264;6.154;2022-12-10T09:14:32;-1.70;99.90
47022;DHT22;32779;52.264;6.154;2022-12-10T09:16:58;-1.70;99.90
47022;DHT22;32779;52.264;6.154;2022-12-10T09:19:23;-1.70;99.90
47022;DHT22;32779;52.264;6.154;2022-12-10T09:21:49;-1.70;99.90
47022;DHT22;32779;52.264;6.154;2022-12-10T09:24:15;-1.70;99.90
47022;DHT22;32779;52.264;6.154;2022-12-10T09:26:40;-1.60;99.90
47022;DHT22;32779;52.264;6.154;2022-12-10T09:29:06;-1.60;99.90
47022;DHT22;32779;52.264;6.154;2022-12-10T09:31:31;-1.60;99.90
47022;DHT22;32779;52.264;6.154;2022-12-10T09:33:57;-1.60;99.90
47022;DHT22;32779;52.264;6.154;2022-12-10T09:36:22;-1.60;99.90
47022;DHT22;32779;52.264;6.154;2022-12-10T09:38:48;-1.50;99.90
47022;DHT22;32779;52.264;6.154;2022-12-10T09:43:59;-1.50;99.90
47022;DHT22;32779;52.264;6.154;2022-12-10T09:51:29;-1.50;99.90
47022;DHT22;32779;52.264;6.154;2022-12-10T09:53:57;-1.50;99.90
47022;DHT22;32779;52.264;6.154;2022-12-10T09:56:35;-1.50;99.90
47022;DHT22;32779;52.264;6.154;2022-12-10T09:59:19;-1.40;99.90
47022;DHT22;32779;52.264;6.154;2022-12-10T10:01:47;-1.40;99.90
47022;DHT22;32779;52.264;6.154;2022-12-10T10:04:14;-1.30;99.90
47022;DHT22;32779;52.264;6.154;2022-12-10T10:06:41;-1.30;99.90
47022;DHT22;32779;52.264;6.154;2022-12-10T10:09:09;-1.30;99.90
47022;DHT22;32779;52.264;6.154;2022-12-10T10:11:36;-1.30;99.90
47022;DHT22;32779;52.264;6.154;2022-12-10T10:14:25;-1.30;99.90
47022;DHT22;32779;52.264;6.154;2022-12-10T10:16:56;-1.20;99.90
47022;DHT22;32779;52.264;6.154;2022-12-10T10:19:33;-1.20;99.90
47022;DHT22;32779;52.264;6.154;2022-12-10T10:22:00;-1.20;99.90
47022;DHT22;32779;52.264;6.154;2022-12-10T10:24:35;-1.20;99.90
47022;DHT22;32779;52.264;6.154;2022-12-10T10:27:15;-1.20;99.90
47022;DHT22;32779;52.264;6.154;2022-12-10T10:29:44;-1.20;99.90
47022;DHT22;32779;52.264;6.154;2022-12-10T10:32:24;-1.20;99.90
47022;DHT22;32779;52.264;6.154;2022-12-10T10:34:53;-1.20;99.90
47022;DHT22;32779;52.264;6.154;2022-12-10T10:39:59;-1.20;99.90
47022;DHT22;32779;52.264;6.154;2022-12-10T10:44:53;-1.20;99.90
47022;DHT22;32779;52.264;6.154;2022-12-10T10:47:30;-1.10;99.90
47022;DHT22;32779;52.264;6.154;2022-12-10T10:49:56;-1.10;99.90
47022;DHT22;32779;52.264;6.154;2022-12-10T10:52:22;-1.10;99.90
47022;DHT22;32779;52.264;6.154;2022-12-10T10:54:48;-1.10;99.90
47022;DHT22;32779;52.264;6.154;2022-12-10T10:57:25;-1.10;99.90
47022;DHT22;32779;52.264;6.154;2022-12-10T11:00:02;-1.10;99.90
47022;DHT22;32779;52.264;6.154;2022-12-10T11:02:35;-1.10;99.90
47022;DHT22;32779;52.264;6.154;2022-12-10T11:05:07;-1.10;99.90
47022;DHT22;32779;52.264;6.154;2022-12-10T11:07:36;-1.10;99.90
47022;DHT22;32779;52.264;6.154;2022-12-10T11:10:17;-1.00;99.90
47022;DHT22;32779;52.264;6.154;2022-12-10T11:12:53;-1.00;99.90
47022;DHT22;32779;52.264;6.154;2022-12-10T11:17:49;-1.00;99.90
47022;DHT22;32779;52.264;6.154;2022-12-10T11:20:19;-0.90;99.90
47022;DHT22;32779;52.264;6.154;2022-12-10T11:25:16;-0.90;99.90
47022;DHT22;32779;52.264;6.154;2022-12-10T11:28:06;-0.90;99.90
47022;DHT22;32779;52.264;6.154;2022-12-10T11:30:39;-0.80;99.90
47022;DHT22;32779;52.264;6.154;2022-12-10T11:36:21;-0.80;99.90
47022;DHT22;32779;52.264;6.154;2022-12-10T11:39:05;-0.70;99.90
47022;DHT22;32779;52.264;6.154;2022-12-10T11:41:58;-0.70;99.90
47022;DHT22;32779;52.264;6.154;2022-12-10T11:44:47;-0.70;99.90
47022;DHT22;32779;52.264;6.154;2022-12-10T11:52:40;-0.60;99.90
47022;DHT22;32779;52.264;6.154;2022-12-10T11:58:36;-0.50;99.90
47022;DHT22;32779;52.264;6.154;2022-12-10T12:12:59;-0.40;99.90
47022;DHT22;32779;52.264;6.154;2022-12-10T12:18:23;-0.30;99.90
47022;DHT22;32779;52.264;6.154;2022-12-10T12:20:59;-0.30;99.90
47022;DHT22;32779;52.264;6.154;2022-12-10T12:26:15;-0.20;99.90
47022;DHT22;32779;52.264;6.154;2022-12-10T12:28:47;-0.30;99.90
47022;DHT22;32779;52.264;6.154;2022-12-10T12:31:24;-0.30;99.90
47022;DHT22;32779;52.264;6.154;2022-12-10T12:36:49;-0.30;99.90
47022;DHT22;32779;52.264;6.154;2022-12-10T12:39:44;-0.30;99.90
47022;DHT22;32779;52.264;6.154;2022-12-10T12:48:02;-0.30;99.90
47022;DHT22;32779;52.264;6.154;2022-12-10T12:50:44;-0.30;99.90
47022;DHT22;32779;52.264;6.154;2022-12-10T12:53:16;-0.30;99.90
47022;DHT22;32779;52.264;6.154;2022-12-10T12:55:47;-0.30;99.90
47022;DHT22;32779;52.264;6.154;2022-12-10T13:00:54;-0.20;99.90
47022;DHT22;32779;52.264;6.154;2022-12-10T13:05:55;-0.20;99.90
47022;DHT22;32779;52.264;6.154;2022-12-10T13:13:42;-0.30;99.90
47022;DHT22;32779;52.264;6.154;2022-12-10T13:27:18;-0.40;99.90
47022;DHT22;32779;52.264;6.154;2022-12-10T13:30:05;-0.40;99.90
47022;DHT22;32779;52.264;6.154;2022-12-10T13:32:47;-0.40;99.90
47022;DHT22;32779;52.264;6.154;2022-12-10T13:35:26;-0.40;99.90
47022;DHT22;32779;52.264;6.154;2022-12-10T13:47:03;-0.40;99.90
47022;DHT22;32779;52.264;6.154;2022-12-10T13:49:25;-0.40;99.90
47022;DHT22;32779;52.264;6.154;2022-12-10T13:52:05;-0.40;99.90
47022;DHT22;32779;52.264;6.154;2022-12-10T13:57:30;-0.50;99.90
47022;DHT22;32779;52.264;6.154;2022-12-10T14:07:40;-0.50;99.90
47022;DHT22;32779;52.264;6.154;2022-12-10T14:10:13;-0.50;99.90
47022;DHT22;32779;52.264;6.154;2022-12-10T14:12:41;-0.50;99.90
47022;DHT22;32779;52.264;6.154;2022-12-10T14:15:16;-0.50;99.90
47022;DHT22;32779;52.264;6.154;2022-12-10T14:17:44;-0.50;99.90
47022;DHT22;32779;52.264;6.154;2022-12-10T14:20:18;-0.60;99.90
47022;DHT22;32779;52.264;6.154;2022-12-10T14:22:47;-0.50;99.90
47022;DHT22;32779;52.264;6.154;2022-12-10T14:25:19;-0.50;99.90
47022;DHT22;32779;52.264;6.154;2022-12-10T14:27:50;-0.60;99.90
47022;DHT22;32779;52.264;6.154;2022-12-10T14:32:44;-0.60;99.90
47022;DHT22;32779;52.264;6.154;2022-12-10T14:35:20;-0.60;99.90
47022;DHT22;32779;52.264;6.154;2022-12-10T14:37:47;-0.60;99.90
47022;DHT22;32779;52.264;6.154;2022-12-10T14:40:26;-0.50;99.90
47022;DHT22;32779;52.264;6.154;2022-12-10T14:45:59;-0.50;99.90
47022;DHT22;32779;52.264;6.154;2022-12-10T14:48:25;-0.50;99.90
47022;DHT22;32779;52.264;6.154;2022-12-10T14:50:51;-0.50;99.90
47022;DHT22;32779;52.264;6.154;2022-12-10T14:53:18;-0.50;99.90
47022;DHT22;32779;52.264;6.154;2022-12-10T14:55:46;-0.50;99.90
47022;DHT22;32779;52.264;6.154;2022-12-10T14:58:18;-0.50;99.90
47022;DHT22;32779;52.264;6.154;2022-12-10T15:00:46;-0.50;99.90
47022;DHT22;32779;52.264;6.154;2022-12-10T15:03:27;-0.50;99.90
47022;DHT22;32779;52.264;6.154;2022-12-10T15:05:59;-0.50;99.90
47022;DHT22;32779;52.264;6.154;2022-12-10T15:08:27;-0.50;99.90
47022;DHT22;32779;52.264;6.154;2022-12-10T15:10:58;-0.50;99.90
47022;DHT22;32779;52.264;6.154;2022-12-10T15:13:46;-0.50;99.90
47022;DHT22;32779;52.264;6.154;2022-12-10T15:18:53;-0.40;99.90
47022;DHT22;32779;52.264;6.154;2022-12-10T15:21:22;-0.40;99.90
47022;DHT22;32779;52.264;6.154;2022-12-10T15:23:48;-0.40;99.90
47022;DHT22;32779;52.264;6.154;2022-12-10T15:28:41;-0.50;99.90
47022;DHT22;32779;52.264;6.154;2022-12-10T15:31:10;-0.60;99.90
47022;DHT22;32779;52.264;6.154;2022-12-10T15:33:43;-0.60;99.90
47022;DHT22;32779;52.264;6.154;2022-12-10T15:36:18;-0.60;99.90
47022;DHT22;32779;52.264;6.154;2022-12-10T15:38:46;-0.60;99.90
47022;DHT22;32779;52.264;6.154;2022-12-10T15:44:37;-0.70;99.90
47022;DHT22;32779;52.264;6.154;2022-12-10T15:47:24;-0.60;99.90
47022;DHT22;32779;52.264;6.154;2022-12-10T15:49:52;-0.70;99.90
47022;DHT22;32779;52.264;6.154;2022-12-10T15:52:21;-0.70;99.90
47022;DHT22;32779;52.264;6.154;2022-12-10T15:54:49;-0.60;99.90
47022;DHT22;32779;52.264;6.154;2022-12-10T15:59:58;-0.70;99.90
47022;DHT22;32779;52.264;6.154;2022-12-10T16:07:35;-0.60;99.90
47022;DHT22;32779;52.264;6.154;2022-12-10T16:10:02;-0.70;99.90
47022;DHT22;32779;52.264;6.154;2022-12-10T16:12:28;-0.70;99.90
47022;DHT22;32779;52.264;6.154;2022-12-10T16:14:55;-0.70;99.90
47022;DHT22;32779;52.264;6.154;2022-12-10T16:17:29;-0.70;99.90
47022;DHT22;32779;52.264;6.154;2022-12-10T16:22:46;-0.70;99.90
47022;DHT22;32779;52.264;6.154;2022-12-10T16:25:11;-0.70;99.90
47022;DHT22;32779;52.264;6.154;2022-12-10T16:27:37;-0.70;99.90
47022;DHT22;32779;52.264;6.154;2022-12-10T16:30:44;-0.80;99.90
47022;DHT22;32779;52.264;6.154;2022-12-10T16:33:09;-0.80;99.90
47022;DHT22;32779;52.264;6.154;2022-12-10T16:35:35;-0.80;99.90
47022;DHT22;32779;52.264;6.154;2022-12-10T16:38:00;-0.80;99.90
47022;DHT22;32779;52.264;6.154;2022-12-10T16:40:27;-0.80;99.90
47022;DHT22;32779;52.264;6.154;2022-12-10T16:42:53;-0.80;99.90
47022;DHT22;32779;52.264;6.154;2022-12-10T16:45:38;-0.80;99.90
47022;DHT22;32779;52.264;6.154;2022-12-10T16:48:04;-0.80;99.90
47022;DHT22;32779;52.264;6.154;2022-12-10T16:50:31;-0.80;99.90
47022;DHT22;32779;52.264;6.154;2022-12-10T16:52:57;-0.80;99.90
47022;DHT22;32779;52.264;6.154;2022-12-10T16:55:25;-0.80;99.90
47022;DHT22;32779;52.264;6.154;2022-12-10T16:57:51;-0.80;99.90
47022;DHT22;32779;52.264;6.154;2022-12-10T17:00:21;-0.80;99.90
47022;DHT22;32779;52.264;6.154;2022-12-10T17:02:48;-0.80;99.90
47022;DHT22;32779;52.264;6.154;2022-12-10T17:05:17;-0.80;99.90
47022;DHT22;32779;52.264;6.154;2022-12-10T17:07:44;-0.80;99.90
47022;DHT22;32779;52.264;6.154;2022-12-10T17:10:13;-0.70;99.90
47022;DHT22;32779;52.264;6.154;2022-12-10T17:12:40;-0.70;99.90
47022;DHT22;32779;52.264;6.154;2022-12-10T17:15:10;-0.70;99.90
47022;DHT22;32779;52.264;6.154;2022-12-10T17:17:36;-0.70;99.90
47022;DHT22;32779;52.264;6.154;2022-12-10T17:20:01;-0.70;99.90
47022;DHT22;32779;52.264;6.154;2022-12-10T17:22:28;-0.70;99.90
47022;DHT22;32779;52.264;6.154;2022-12-10T17:24:53;-0.70;99.90
47022;DHT22;32779;52.264;6.154;2022-12-10T17:27:20;-0.70;99.90
47022;DHT22;32779;52.264;6.154;2022-12-10T17:29:47;-0.70;99.90
47022;DHT22;32779;52.264;6.154;2022-12-10T17:32:19;-0.70;99.90
47022;DHT22;32779;52.264;6.154;2022-12-10T17:34:45;-0.70;99.90
47022;DHT22;32779;52.264;6.154;2022-12-10T17:37:16;-0.70;99.90
47022;DHT22;32779;52.264;6.154;2022-12-10T17:39:43;-0.70;99.90
47022;DHT22;32779;52.264;6.154;2022-12-10T17:42:09;-0.70;99.90
47022;DHT22;32779;52.264;6.154;2022-12-10T17:44:36;-0.70;99.90
47022;DHT22;32779;52.264;6.154;2022-12-10T17:47:14;-0.70;99.90
47022;DHT22;32779;52.264;6.154;2022-12-10T17:49:40;-0.70;99.90
47022;DHT22;32779;52.264;6.154;2022-12-10T17:52:06;-0.70;99.90
47022;DHT22;32779;52.264;6.154;2022-12-10T17:54:31;-0.70;99.90
47022;DHT22;32779;52.264;6.154;2022-12-10T17:56:57;-0.80;99.90
47022;DHT22;32779;52.264;6.154;2022-12-10T17:59:22;-0.80;99.90
47022;DHT22;32779;52.264;6.154;2022-12-10T18:01:48;-0.80;99.90
47022;DHT22;32779;52.264;6.154;2022-12-10T18:04:15;-0.70;99.90
47022;DHT22;32779;52.264;6.154;2022-12-10T18:06:40;-0.70;99.90
47022;DHT22;32779;52.264;6.154;2022-12-10T18:09:09;-0.70;99.90
47022;DHT22;32779;52.264;6.154;2022-12-10T18:11:36;-0.60;99.90
47022;DHT22;32779;52.264;6.154;2022-12-10T18:14:01;-0.70;99.90
47022;DHT22;32779;52.264;6.154;2022-12-10T18:16:32;-0.60;99.90
47022;DHT22;32779;52.264;6.154;2022-12-10T18:19:00;-0.70;99.90